»·PEaware :: N196EC KSNA-KONT

N196EC :: KSNA-KONT

FLIGHT INFORMATION

Flight Status: Arrived
Operator: Privately registered:
United States
More flights under this callsign
Pilot: Adrián R. (20842)
Aircraft: AERMACCHI WARRIOR
(F260)
More flights by this aircraft type
Origin: KSNA John Wayne-Orange Co
United States
Destination: KONT Ontario Intl
United States
More flights between these airports :: More routes between these airports
Route: +SLI V8 PDZ
File this flight plan on PilotEdge
Remarks: TEC ROUTE CSTP13
Altitude:
(Current/Filed)
5,000ft
Speed:
(Current/Filed)
150kts
Departed: 04-Dec-18 10:43 AM
Arrived: 04-Dec-18 11:17 AM
Distance/Time
Traveled:
26nm/0:34
Distance/Time
To Go:
Arrived

Flight Plot

Page will automatically refresh every two minutes.


Map Options




Map Legend


Flown Route
Filed Route
Departure Airport
Arrival Airport
Navaid (VOR, NDB)
Fix

Horizontal Profiles

Position Reports

Time Latitude Longitude Heading Altitude Ground
Speed
04-Dec-18 10:13 33.667349 -117.870970 37 59ft 0kts
04-Dec-18 10:14 33.667349 -117.870970 37 59ft 0kts
04-Dec-18 10:15 33.667349 -117.870970 37 59ft 0kts
04-Dec-18 10:16 33.667349 -117.870970 37 59ft 0kts
04-Dec-18 10:17 33.667349 -117.870970 37 59ft 0kts
04-Dec-18 10:18 33.667349 -117.870970 37 59ft 0kts
04-Dec-18 10:19 33.667349 -117.870970 37 59ft 0kts
04-Dec-18 10:20 33.667349 -117.870970 37 59ft 0kts
04-Dec-18 10:21 33.667349 -117.870970 37 59ft 0kts
04-Dec-18 10:22 33.667349 -117.870970 37 59ft 0kts
04-Dec-18 10:23 33.667349 -117.870970 37 59ft 0kts
04-Dec-18 10:24 33.667349 -117.870970 37 59ft 0kts
04-Dec-18 10:25 33.667349 -117.870970 37 59ft 0kts
04-Dec-18 10:26 33.667349 -117.870970 37 59ft 0kts
04-Dec-18 10:27 33.667349 -117.870970 37 59ft 0kts
04-Dec-18 10:28 33.667349 -117.870970 37 59ft 0kts
04-Dec-18 10:29 33.667349 -117.870970 37 59ft 0kts
04-Dec-18 10:30 33.667349 -117.870970 37 59ft 0kts
04-Dec-18 10:31 33.667432 -117.870948 345 59ft 2kts
04-Dec-18 10:32 33.667765 -117.871373 308 59ft 0kts
04-Dec-18 10:33 33.667767 -117.871375 308 59ft 0kts
04-Dec-18 10:34 33.669935 -117.870060 40 59ft 15kts
04-Dec-18 10:35 33.673458 -117.867846 49 59ft 0kts
04-Dec-18 10:36 33.673458 -117.867846 48 59ft 0kts
04-Dec-18 10:37 33.673458 -117.867846 48 59ft 0kts
04-Dec-18 10:38 33.673464 -117.867837 48 59ft 1kts
04-Dec-18 10:39 33.676002 -117.865859 26 59ft 14kts
04-Dec-18 10:40 33.679811 -117.863473 8 59ft 10kts
04-Dec-18 10:41 33.679977 -117.863582 294 59ft 0kts
04-Dec-18 10:42 33.678444 -117.865209 207 59ft 64kts
04-Dec-18 10:43 33.655185 -117.886107 230 965ft 128kts
04-Dec-18 10:44 33.632882 -117.920982 231 2255ft 135kts
04-Dec-18 10:45 33.610592 -117.956944 231 3545ft 133kts
04-Dec-18 10:46 33.588988 -117.993733 231 4616ft 139kts
04-Dec-18 10:47 33.565470 -118.035018 232 4993ft 162kts
04-Dec-18 10:48 33.561713 -118.078668 333 4987ft 149kts
04-Dec-18 10:49 33.588981 -118.055190 62 4992ft 136kts
04-Dec-18 10:50 33.610552 -118.017104 57 4993ft 142kts
04-Dec-18 10:51 33.635305 -117.977266 56 4990ft 150kts
04-Dec-18 10:52 33.660385 -117.937688 55 4990ft 147kts
04-Dec-18 10:53 33.684768 -117.899314 55 4970ft 139kts
04-Dec-18 10:54 33.708017 -117.862755 55 4972ft 136kts
04-Dec-18 10:55 33.730925 -117.826699 55 4973ft 135kts
04-Dec-18 10:56 33.753572 -117.791042 55 4980ft 134kts
04-Dec-18 10:57 33.776541 -117.754852 56 4988ft 139kts
04-Dec-18 10:58 33.800403 -117.717183 56 4995ft 143kts
04-Dec-18 10:59 33.824546 -117.679012 57 5002ft 144kts
04-Dec-18 11:00 33.848898 -117.640469 57 5009ft 145kts
04-Dec-18 11:01 33.873491 -117.601544 57 5017ft 146kts
04-Dec-18 11:02 33.898289 -117.562713 56 5017ft 146kts
04-Dec-18 11:03 33.922717 -117.523646 68 5013ft 143kts
04-Dec-18 11:04 33.941054 -117.481426 64 5013ft 141kts
04-Dec-18 11:05 33.960073 -117.440271 63 5012ft 139kts
04-Dec-18 11:06 33.978781 -117.399792 62 5013ft 138kts
04-Dec-18 11:08 33.997515 -117.358827 55 5017ft 141kts
04-Dec-18 11:09 34.023051 -117.331021 339 4937ft 141kts
04-Dec-18 11:10 34.054942 -117.361328 298 4314ft 143kts
04-Dec-18 11:11 34.054827 -117.410594 271 3620ft 142kts
04-Dec-18 11:12 34.054882 -117.456003 271 2937ft 132kts
04-Dec-18 11:13 34.054921 -117.499079 271 2349ft 123kts
04-Dec-18 11:14 34.054965 -117.535868 270 1705ft 98kts
04-Dec-18 11:15 34.054861 -117.566512 270 1275ft 91kts
04-Dec-18 11:16 34.054935 -117.594208 270 942ft 56kts
04-Dec-18 11:17 34.054019 -117.598030 202 942ft 2kts
04-Dec-18 11:18 34.053825 -117.602524 270 942ft 21kts
04-Dec-18 11:19 34.053560 -117.609424 180 942ft 10kts
04-Dec-18 11:20 34.053025 -117.610010 324 942ft 0kts
04-Dec-18 11:21 34.053025 -117.610010 324 942ft 0kts
04-Dec-18 11:22 34.053025 -117.610010 324 942ft 0kts

Navigation Log

Ident Type
Flight plan parsing failed, navigation log unavailable